Startpagina
METAR-TAF:

METAR-TAF

Vliegvelden :

Puerto Maldonado, Peru

breedte: 12-38S, lengte: 069-12W, hoogte: 265 m

Actueel weer

Dit bericht is 5 uur en het 35 minuten geleden gemaakt, om 23:00 UTC
Wind 1 kt uit het westen
Temperatuur 27°C
Vochtigheid 79%
Druk 1009 hPa
Zicht 10 km of meer
geen wolken onder 1500 m en geen cumulonimbus

METAR: SPTU 252300Z 26001KT CAVOK 27/23 Q1009 RMK BIRD HAZARD RWY 01/19 PP000

Tijdstip: 23:35 (04:35 UTC)

Verwachting

Dit bericht is 11 uur en het 35 minuten geleden gemaakt, om 17:00 UTC
Verwachting geldig van 25 om 18 UTC tot 26 om 18 UTC
Wind 5 kt uit het noordnoordwesten
Zicht 10 km of meer
geen wolken onder 1500 m en geen cumulonimbus

TAF: SPTU 251700Z 2518/2618 33005KT CAVOK TX35/2519Z TN19/2611Z

Waarnemingen en weersverwachtingen van meer dan 4000 vliegvelden (METAR en TAF).

De beschikbare stations zijn de gele en rode punten op de kaart.

Ga met uw muis naar het station om de naam te zien.

Klik dan om waarnemingen en weersverwachtingen te zien.

kaart wijzigen: klik op de groene knoppen met een zwart kruis om in te zoomen, op de groene knop met een streepje om uit te zoomen of op de groene pijlen voor aangrenzende kaarten.


METAR-TAF: